Terminal Aerodrome Forecast
Issued by NWS Salt Lake City, UT

Current Version | Previous Version | Text Only | Print | Product List | Glossary On
Versions: 1 2 3 4 5 6 7 8 9 10 11 12 13 14 15 16 17
000
FTUS45 KSLC 261120
TAFCDC
TAF
KCDC 261120Z 2612/2712 VRB04KT 1/2SM FZFG VV001
     FM261400 VRB04KT P6SM BCFG SCT001 SCT040
     FM261600 VRB04KT P6SM SCT060 SCT120
     FM270300 23008KT P6SM SCT040 BKN080=

USA.gov is the U.S. government's official web portal to all federal, state and local government web resources and services.